Hurst Springs, Texas
Current Conditions -  °F | °C
As of 11:51 AM on Friday 24 Oct 2014 (Local Time) from KACT Reporting Station
Clear Clear  
Wind Chill: 74°   Ceiling: Unl
Heat Index: 74°   Visibility: 10mi
Dew Point: 56°   Wind: 9mph
Humidity: 53%   Direction: 180°S
Pressure: 30.19"   Gusts: NA
Location:  31.7854°N, 97.5786°W
Report Text: KACT 241651Z 18008KT 10SM CLR 23/13 A3019 RMK AO2 SLP217 T02330133
Loading
Personal Weather Stations






























Interactive Weather Map
Tropical Storm Tracking
New forecast layout! Learn more

10-Day Weather Forecast

Advertisements
Track Severe Weather on mobile